Time;durP1;ratioP1;P1;durP2;ratioP2;P2;SDS_P1;SDS_P2;PMS_P1;PMS_P2;Temp;Humidity;BMP_temperature;BMP_pressure;BME280_temperature;BME280_humidity;BME280_pressure;Samples;Min_cycle;Max_cycle;Signal;HPM_P1;HPM_P2
2021/07/26 00:01:33;;;;;;;27.02;17.02;;;15.10;81.10;;;;;;5067670;28;20068;-75
2021/07/26 00:04:04;;;;;;;31.88;19.50;;;15.00;81.30;;;;;;5066366;28;20056;-75
2021/07/26 00:06:35;;;;;;;26.20;18.10;;;15.00;81.60;;;;;;5060105;28;20051;-75
2021/07/26 00:09:04;;;;;;;28.50;18.65;;;14.90;81.80;;;;;;5058417;28;20053;-76
2021/07/26 00:11:31;;;;;;;36.25;19.42;;;14.90;82.00;;;;;;5052454;28;20056;-76
2021/07/26 00:13:59;;;;;;;33.90;18.98;;;14.90;82.10;;;;;;5068504;28;20048;-76
2021/07/26 00:16:27;;;;;;;29.95;19.23;;;14.90;82.30;;;;;;5064654;28;20049;-76
2021/07/26 00:18:55;;;;;;;30.52;18.85;;;14.80;82.50;;;;;;5060529;28;20372;-75
2021/07/26 00:21:22;;;;;;;32.47;20.73;;;14.80;82.60;;;;;;5058281;28;20037;-76
2021/07/26 00:23:50;;;;;;;32.08;20.23;;;14.80;82.80;;;;;;5068132;28;20495;-76
2021/07/26 00:26:19;;;;;;;34.67;20.40;;;14.70;83.00;;;;;;5057278;28;20047;-76
2021/07/26 00:28:47;;;;;;;36.05;19.40;;;14.70;83.10;;;;;;5061662;28;20048;-75
2021/07/26 00:31:17;;;;;;;29.83;19.67;;;14.60;83.30;;;;;;5065672;28;20044;-75
2021/07/26 00:34:19;;;;;;;35.40;20.50;;;14.60;83.40;;;;;;5053664;28;20055;-75
2021/07/26 00:36:50;;;;;;;33.35;20.45;;;14.70;83.80;;;;;;5061785;28;20385;-75
2021/07/26 00:39:23;;;;;;;34.17;20.67;;;14.80;83.40;;;;;;5047604;28;20049;-75
2021/07/26 00:41:51;;;;;;;38.70;21.15;;;14.70;83.40;;;;;;5053609;28;20056;-75
2021/07/26 00:44:21;;;;;;;36.58;20.52;;;14.80;83.30;;;;;;5064185;28;20045;-75
2021/07/26 00:46:50;;;;;;;36.40;19.83;;;14.80;83.20;;;;;;5044213;28;20057;-74
2021/07/26 00:49:20;;;;;;;35.20;20.02;;;14.90;83.20;;;;;;5057252;28;20376;-74
2021/07/26 00:51:51;;;;;;;41.22;21.38;;;14.90;83.10;;;;;;5032120;28;20041;-75
2021/07/26 00:54:25;;;;;;;35.08;20.85;;;15.00;83.10;;;;;;5069754;28;20407;-75
2021/07/26 00:56:55;;;;;;;35.60;20.17;;;15.00;83.10;;;;;;5060247;28;20052;-74
2021/07/26 00:59:23;;;;;;;35.60;21.05;;;15.10;83.10;;;;;;5055023;28;20499;-75
2021/07/26 01:01:51;;;;;;;30.60;19.80;;;15.20;83.10;;;;;;5067962;28;20044;-76
2021/07/26 01:04:19;;;;;;;29.70;20.25;;;15.30;83.00;;;;;;5058259;28;20063;-76
2021/07/26 01:06:47;;;;;;;37.33;22.63;;;15.30;83.00;;;;;;5061358;28;20407;-74
2021/07/26 01:09:15;;;;;;;39.88;23.77;;;15.30;83.00;;;;;;5058343;28;20060;-74
2021/07/26 01:11:44;;;;;;;39.25;24.25;;;15.30;83.00;;;;;;5069298;28;20435;-75
2021/07/26 01:14:17;;;;;;;36.70;24.02;;;15.30;83.00;;;;;;5068980;28;20049;-74
2021/07/26 01:16:46;;;;;;;38.60;24.27;;;15.40;83.00;;;;;;5065336;28;20041;-75
2021/07/26 01:19:14;;;;;;;44.08;24.27;;;15.50;83.00;;;;;;5045410;28;20412;-75
2021/07/26 01:21:44;;;;;;;38.97;23.17;;;15.50;82.90;;;;;;5068475;28;20060;-75
2021/07/26 01:24:13;;;;;;;43.13;23.65;;;15.50;82.90;;;;;;5056673;28;20048;-75
2021/07/26 01:26:41;;;;;;;41.88;24.27;;;15.50;83.00;;;;;;5062951;28;20045;-75
2021/07/26 01:29:11;;;;;;;34.95;22.75;;;15.60;83.00;;;;;;5066422;28;20403;-75
2021/07/26 01:31:39;;;;;;;39.33;24.17;;;15.60;83.00;;;;;;5056088;28;20049;-75
2021/07/26 01:34:07;;;;;;;38.92;23.55;;;15.60;83.10;;;;;;5072741;28;20040;-75
2021/07/26 01:36:36;;;;;;;38.78;24.02;;;15.60;83.10;;;;;;5047882;28;20071;-75
2021/07/26 01:39:04;;;;;;;41.20;23.77;;;15.60;83.20;;;;;;5072424;28;20045;-76
2021/07/26 01:41:36;;;;;;;38.13;23.88;;;15.60;83.30;;;;;;5072856;28;20427;-75
2021/07/26 01:44:10;;;;;;;40.00;24.88;;;15.60;83.40;;;;;;5056508;28;20045;-75
2021/07/26 01:46:46;;;;;;;40.22;24.20;;;15.60;83.40;;;;;;5065828;28;20044;-74
2021/07/26 01:49:33;;;;;;;39.05;25.17;;;15.70;83.40;;;;;;5067729;28;20052;-75
2021/07/26 01:52:02;;;;;;;41.15;24.55;;;15.70;83.40;;;;;;5056829;28;20040;-75
2021/07/26 01:54:30;;;;;;;41.03;23.63;;;15.70;83.40;;;;;;5072439;28;20059;-75
2021/07/26 01:56:58;;;;;;;39.28;24.42;;;15.70;83.50;;;;;;5063209;28;20049;-75
2021/07/26 01:59:26;;;;;;;39.08;24.52;;;15.70;83.50;;;;;;5069009;28;20052;-75
2021/07/26 02:01:55;;;;;;;38.83;23.98;;;15.70;83.60;;;;;;5057155;28;21139;-75
2021/07/26 02:04:24;;;;;;;38.38;24.40;;;15.70;83.70;;;;;;5067483;28;20412;-75
2021/07/26 02:06:52;;;;;;;43.05;24.42;;;15.70;83.70;;;;;;5073582;28;20036;-75
2021/07/26 02:09:20;;;;;;;44.70;24.23;;;15.70;83.80;;;;;;5069245;28;20049;-76
2021/07/26 02:11:47;;;;;;;39.83;25.23;;;15.70;83.80;;;;;;5055785;28;20057;-75
2021/07/26 02:14:15;;;;;;;42.67;25.48;;;15.70;83.80;;;;;;5072434;28;20048;-75
2021/07/26 02:16:43;;;;;;;41.47;23.75;;;15.70;83.90;;;;;;5064096;28;20420;-75
2021/07/26 02:19:11;;;;;;;40.00;24.55;;;15.70;83.90;;;;;;5067092;28;20052;-76
2021/07/26 02:21:38;;;;;;;38.38;23.27;;;15.70;83.90;;;;;;5064994;28;20041;-75
2021/07/26 02:24:07;;;;;;;39.28;24.20;;;15.70;83.90;;;;;;5057809;28;20056;-75
2021/07/26 02:26:35;;;;;;;43.70;24.90;;;15.70;84.00;;;;;;5060362;28;20045;-75
2021/07/26 02:29:05;;;;;;;43.08;24.90;;;15.70;84.00;;;;;;5064756;28;20430;-75
2021/07/26 02:31:32;;;;;;;39.42;24.33;;;15.70;84.00;;;;;;5056592;28;20045;-75
2021/07/26 02:34:01;;;;;;;40.40;23.95;;;15.70;84.00;;;;;;5069133;28;20041;-74
2021/07/26 02:36:28;;;;;;;39.95;23.95;;;15.70;84.10;;;;;;5059089;28;20044;-74
2021/07/26 02:38:56;;;;;;;43.58;25.35;;;15.70;84.10;;;;;;5060018;28;20049;-74
2021/07/26 02:41:24;;;;;;;42.15;23.95;;;15.80;84.10;;;;;;5065570;28;20076;-74
2021/07/26 02:43:52;;;;;;;42.92;24.65;;;15.80;84.20;;;;;;5056284;28;20057;-75
2021/07/26 02:46:19;;;;;;;43.53;24.27;;;15.80;84.10;;;;;;5064851;28;20524;-75
2021/07/26 02:48:47;;;;;;;43.40;25.35;;;15.80;84.10;;;;;;5062343;28;20056;-75
2021/07/26 02:51:15;;;;;;;45.45;25.35;;;15.80;84.10;;;;;;5058585;28;20049;-75
2021/07/26 02:53:43;;;;;;;45.10;25.33;;;15.80;84.10;;;;;;5068060;28;20056;-74
2021/07/26 02:56:11;;;;;;;42.60;25.27;;;15.80;84.10;;;;;;5065153;28;20062;-75
2021/07/26 02:58:39;;;;;;;43.05;24.55;;;15.90;84.20;;;;;;5061347;28;20060;-75
2021/07/26 03:01:11;;;;;;;45.75;26.17;;;15.80;84.20;;;;;;5064956;28;20436;-75
2021/07/26 03:03:39;;;;;;;44.83;25.77;;;15.90;84.30;;;;;;5072287;28;20510;-75
2021/07/26 03:06:19;;;;;;;46.63;26.27;;;15.90;84.20;;;;;;5056934;28;20041;-75
2021/07/26 03:08:48;;;;;;;47.28;26.48;;;15.90;84.40;;;;;;5051051;28;20279;-75
2021/07/26 03:11:15;;;;;;;48.53;25.40;;;15.90;84.40;;;;;;5069693;28;20484;-74
2021/07/26 03:13:46;;;;;;;51.55;27.75;;;16.00;84.50;;;;;;5070013;28;20049;-75
2021/07/26 03:16:15;;;;;;;55.33;27.95;;;15.90;84.60;;;;;;5062775;28;20057;-75
2021/07/26 03:18:43;;;;;;;49.90;27.73;;;15.90;84.70;;;;;;5063511;28;20499;-75
2021/07/26 03:21:15;;;;;;;52.45;27.48;;;15.90;84.90;;;;;;5065808;28;20495;-75
2021/07/26 03:23:43;;;;;;;50.15;27.23;;;15.90;85.00;;;;;;5059831;28;20403;-75
2021/07/26 03:26:12;;;;;;;53.25;27.98;;;15.90;85.10;;;;;;5057697;28;20044;-75
2021/07/26 03:28:40;;;;;;;57.05;28.92;;;15.90;85.20;;;;;;5046125;28;20045;-75
2021/07/26 03:31:08;;;;;;;56.90;28.77;;;15.90;85.30;;;;;;5071884;28;20418;-74
2021/07/26 03:33:35;;;;;;;56.72;29.67;;;15.90;85.40;;;;;;5052502;28;20041;-74
2021/07/26 03:36:03;;;;;;;57.28;29.13;;;15.90;85.50;;;;;;5050381;28;20044;-74
2021/07/26 03:38:31;;;;;;;56.72;29.35;;;15.80;85.60;;;;;;5060049;28;20051;-75
2021/07/26 03:40:59;;;;;;;53.70;28.77;;;15.90;85.80;;;;;;5071484;28;20053;-75
2021/07/26 03:43:27;;;;;;;58.88;29.58;;;15.80;85.90;;;;;;5069967;28;20044;-75
2021/07/26 03:45:55;;;;;;;56.17;29.08;;;15.80;86.00;;;;;;5055583;28;20057;-74
2021/07/26 03:48:22;;;;;;;63.70;29.85;;;15.80;86.10;;;;;;5066136;28;20064;-74
2021/07/26 03:50:50;;;;;;;59.67;29.42;;;15.80;86.20;;;;;;5061608;28;20439;-74
2021/07/26 03:53:18;;;;;;;53.63;28.02;;;15.70;86.20;;;;;;5062675;28;20044;-76
2021/07/26 03:55:46;;;;;;;58.75;28.85;;;15.70;86.30;;;;;;5053867;28;20067;-75
2021/07/26 03:58:13;;;;;;;65.85;30.10;;;15.70;86.50;;;;;;5053061;28;20396;-75
2021/07/26 04:00:41;;;;;;;61.53;29.13;;;15.70;86.50;;;;;;5070940;28;20483;-74
2021/07/26 04:03:26;;;;;;;62.75;30.83;;;15.80;86.60;;;;;;5059134;28;20377;-75
2021/07/26 04:08:31;;;;;;;60.33;29.55;;;15.70;86.60;;;;;;5059604;28;20048;-75
2021/07/26 04:11:13;;;;;;;59.22;28.52;;;15.70;86.60;;;;;;5065298;28;20044;-75
2021/07/26 04:13:41;;;;;;;67.00;29.67;;;15.70;86.70;;;;;;5063476;28;20041;-74
2021/07/26 04:16:09;;;;;;;61.97;31.15;;;15.70;86.70;;;;;;5038966;28;20055;-74
2021/07/26 04:18:37;;;;;;;66.95;31.05;;;15.70;86.80;;;;;;5071612;28;20376;-74
2021/07/26 04:21:08;;;;;;;68.97;31.55;;;15.70;86.90;;;;;;5058264;28;20389;-74
2021/07/26 04:23:37;;;;;;;69.55;31.08;;;15.70;86.90;;;;;;5069085;28;20052;-74
2021/07/26 04:26:08;;;;;;;67.68;30.98;;;15.70;87.00;;;;;;5055949;28;20055;-75
2021/07/26 04:28:55;;;;;;;63.50;31.05;;;15.60;87.10;;;;;;5068268;28;20048;-75
2021/07/26 04:31:23;;;;;;;69.63;31.83;;;15.60;87.10;;;;;;5056719;28;20496;-74
2021/07/26 04:33:59;;;;;;;56.95;30.45;;;15.60;87.20;;;;;;5067031;28;20037;-74
2021/07/26 04:36:27;;;;;;;58.00;29.92;;;15.60;87.20;;;;;;5058273;28;20423;-75
2021/07/26 04:38:55;;;;;;;54.92;29.45;;;15.60;87.10;;;;;;5070402;28;20041;-75
2021/07/26 04:41:22;;;;;;;55.72;29.95;;;15.60;87.10;;;;;;5056740;28;20049;-75
2021/07/26 04:43:50;;;;;;;59.88;30.05;;;15.60;87.00;;;;;;5067805;28;20049;-75
2021/07/26 04:46:18;;;;;;;60.20;29.92;;;15.50;87.00;;;;;;5057689;28;20055;-75
2021/07/26 04:48:45;;;;;;;55.75;29.75;;;15.50;87.00;;;;;;5065870;28;20044;-75
2021/07/26 04:51:14;;;;;;;54.25;28.02;;;15.50;87.00;;;;;;5071913;28;20048;-75
2021/07/26 04:53:42;;;;;;;54.58;29.05;;;15.50;86.90;;;;;;5058986;28;20056;-75
2021/07/26 04:56:10;;;;;;;51.10;28.13;;;15.50;86.80;;;;;;5070607;28;20508;-76
2021/07/26 04:58:56;;;;;;;56.08;27.85;;;15.50;86.70;;;;;;5077159;28;20048;-76
2021/07/26 05:01:24;;;;;;;56.08;28.98;;;15.50;86.70;;;;;;5073842;28;20040;-76
2021/07/26 05:03:52;;;;;;;51.38;28.25;;;15.50;86.60;;;;;;5072313;28;20119;-75
2021/07/26 05:06:20;;;;;;;50.75;28.20;;;15.60;86.60;;;;;;5059672;28;20049;-75
2021/07/26 05:08:47;;;;;;;46.95;27.15;;;15.50;86.50;;;;;;5069856;28;20052;-75
2021/07/26 05:11:22;;;;;;;57.30;27.65;;;15.60;86.40;;;;;;5061411;28;20041;-74
2021/07/26 05:13:51;;;;;;;49.53;25.70;;;15.60;86.40;;;;;;5041418;28;20044;-75
2021/07/26 05:16:20;;;;;;;50.47;26.33;;;15.60;86.30;;;;;;5061464;28;20059;-75
2021/07/26 05:18:52;;;;;;;43.17;25.30;;;15.70;86.10;;;;;;5064225;28;20048;-75
2021/07/26 05:21:22;;;;;;;45.50;24.75;;;15.60;86.10;;;;;;5072993;28;20052;-74
2021/07/26 05:23:50;;;;;;;47.53;25.50;;;15.70;86.10;;;;;;5056966;28;20060;-75
2021/07/26 05:26:17;;;;;;;44.42;24.80;;;15.70;86.00;;;;;;5067944;28;20403;-75
2021/07/26 05:28:45;;;;;;;43.42;24.75;;;15.70;85.90;;;;;;5065403;28;20049;-75
2021/07/26 05:31:13;;;;;;;45.95;24.67;;;15.70;85.80;;;;;;5059992;28;20500;-75
2021/07/26 05:33:42;;;;;;;45.35;25.23;;;15.80;85.60;;;;;;5071573;28;20395;-75
2021/07/26 05:36:09;;;;;;;39.40;23.15;;;15.80;85.50;;;;;;5069848;28;20049;-75
2021/07/26 05:38:37;;;;;;;40.03;23.00;;;15.90;85.30;;;;;;5057981;28;20045;-75
2021/07/26 05:41:07;;;;;;;38.67;22.80;;;15.80;85.20;;;;;;5065873;28;20052;-75
2021/07/26 05:43:35;;;;;;;39.25;22.80;;;15.80;85.20;;;;;;5065660;28;20048;-75
2021/07/26 05:46:03;;;;;;;37.25;22.83;;;15.90;85.10;;;;;;5067657;28;20063;-75
2021/07/26 05:48:30;;;;;;;37.63;23.48;;;16.00;85.10;;;;;;5065364;28;20519;-75
2021/07/26 05:50:58;;;;;;;37.90;22.90;;;16.00;84.80;;;;;;5065299;28;20055;-75
2021/07/26 05:53:25;;;;;;;40.35;23.40;;;16.10;84.60;;;;;;5058993;28;20463;-75
2021/07/26 05:55:53;;;;;;;43.40;25.38;;;16.10;84.40;;;;;;5072784;28;20535;-75
2021/07/26 05:58:21;;;;;;;39.45;23.48;;;16.10;84.40;;;;;;5071645;28;20033;-75
2021/07/26 06:01:08;;;;;;;36.28;22.92;;;16.10;84.40;;;;;;5063999;28;20086;-75
2021/07/26 06:03:36;;;;;;;39.10;23.30;;;16.00;84.40;;;;;;5070520;28;20052;-75
2021/07/26 06:06:04;;;;;;;40.42;23.10;;;16.10;84.40;;;;;;5056767;28;20048;-75
2021/07/26 06:08:32;;;;;;;48.80;24.25;;;16.10;84.30;;;;;;5065980;28;20408;-75
2021/07/26 06:11:02;;;;;;;60.22;24.23;;;16.20;84.20;;;;;;5065153;28;20052;-75
2021/07/26 06:13:30;;;;;;;48.15;23.40;;;16.20;84.10;;;;;;5057918;28;20045;-75
2021/07/26 06:16:06;;;;;;;37.15;23.52;;;16.30;84.00;;;;;;5057706;28;20399;-75
2021/07/26 06:18:35;;;;;;;48.28;22.88;;;16.30;84.00;;;;;;5071318;28;20044;-75
2021/07/26 06:21:09;;;;;;;44.38;23.27;;;16.20;84.00;;;;;;5072374;28;20110;-75
2021/07/26 06:23:37;;;;;;;66.75;25.85;;;16.20;84.10;;;;;;5039590;28;20058;-75
2021/07/26 06:26:06;;;;;;;39.60;22.90;;;16.20;84.10;;;;;;5068098;28;20052;-75
2021/07/26 06:28:34;;;;;;;32.90;21.98;;;16.20;84.00;;;;;;5066450;28;20052;-76
2021/07/26 06:31:03;;;;;;;34.83;21.70;;;16.20;84.00;;;;;;5068833;28;20048;-75
2021/07/26 06:33:30;;;;;;;32.53;20.33;;;16.30;83.80;;;;;;5064032;28;20067;-76
2021/07/26 06:36:02;;;;;;;53.40;22.08;;;16.30;83.60;;;;;;5069502;28;20508;-75
2021/07/26 06:38:30;;;;;;;71.85;22.17;;;16.30;83.50;;;;;;5060923;28;20040;-75
2021/07/26 06:40:58;;;;;;;41.65;20.30;;;16.30;83.30;;;;;;5061785;28;20048;-76
2021/07/26 06:43:26;;;;;;;38.03;19.55;;;16.40;83.20;;;;;;5062272;28;20045;-76
2021/07/26 06:45:53;;;;;;;39.92;18.98;;;16.50;83.00;;;;;;5059119;28;20051;-76
2021/07/26 06:48:23;;;;;;;71.13;19.02;;;16.60;82.70;;;;;;5062197;28;20397;-75
2021/07/26 06:50:51;;;;;;;39.13;18.73;;;16.70;82.50;;;;;;5066091;28;20053;-75
2021/07/26 06:53:20;;;;;;;33.90;17.25;;;16.80;82.40;;;;;;5058570;28;20067;-75
2021/07/26 06:56:00;;;;;;;29.33;17.00;;;16.80;82.20;;;;;;5067085;28;20048;-75
2021/07/26 06:58:28;;;;;;;35.17;16.40;;;16.90;81.90;;;;;;5048942;28;20515;-75
2021/07/26 07:00:56;;;;;;;32.72;15.38;;;17.00;81.40;;;;;;5045250;28;20047;-76
2021/07/26 07:03:24;;;;;;;27.52;16.05;;;17.20;81.10;;;;;;5062095;28;20056;-74
2021/07/26 07:05:52;;;;;;;30.15;14.75;;;17.30;80.80;;;;;;5067566;28;20403;-74
2021/07/26 07:08:19;;;;;;;26.13;16.10;;;17.50;80.30;;;;;;5053299;28;20427;-75
2021/07/26 07:10:47;;;;;;;28.23;15.30;;;17.80;79.60;;;;;;5062715;28;20067;-75
2021/07/26 07:13:15;;;;;;;29.08;15.38;;;17.90;79.00;;;;;;5057799;28;20068;-75
2021/07/26 07:15:43;;;;;;;24.17;14.93;;;17.90;78.80;;;;;;5068609;28;20055;-75
2021/07/26 07:18:11;;;;;;;27.05;15.70;;;17.90;78.60;;;;;;5071489;28;20040;-75
2021/07/26 07:20:39;;;;;;;23.27;14.85;;;17.90;78.50;;;;;;5045410;28;20048;-75
2021/07/26 07:23:06;;;;;;;21.20;15.32;;;17.90;78.40;;;;;;5065288;28;20053;-74
2021/07/26 07:25:36;;;;;;;22.15;15.48;;;17.90;78.20;;;;;;5054865;28;20420;-75
2021/07/26 07:28:03;;;;;;;26.98;15.98;;;17.90;78.30;;;;;;5066508;28;20380;-75
2021/07/26 07:30:31;;;;;;;21.85;15.50;;;17.90;78.30;;;;;;5066137;28;20384;-75
2021/07/26 07:33:00;;;;;;;26.70;16.17;;;17.90;78.30;;;;;;5060864;28;20055;-75
2021/07/26 07:35:30;;;;;;;23.52;16.10;;;17.90;78.30;;;;;;5066748;28;20049;-75
2021/07/26 07:37:58;;;;;;;25.13;15.73;;;17.90;78.40;;;;;;5053884;28;20052;-76
2021/07/26 07:40:26;;;;;;;24.48;15.18;;;18.00;78.40;;;;;;5064086;28;20041;-75
2021/07/26 07:42:54;;;;;;;27.77;16.88;;;18.00;78.30;;;;;;5061672;28;20048;-76
2021/07/26 07:45:22;;;;;;;26.50;17.17;;;18.10;78.00;;;;;;5057600;28;20404;-76
2021/07/26 07:47:55;;;;;;;25.27;16.73;;;18.20;77.80;;;;;;5070783;28;20048;-75
2021/07/26 07:50:24;;;;;;;24.17;16.13;;;18.30;77.60;;;;;;5072204;28;20045;-75
2021/07/26 07:52:53;;;;;;;29.27;16.10;;;18.40;77.30;;;;;;5060024;28;20056;-75
2021/07/26 07:55:21;;;;;;;153.55;21.40;;;18.60;76.90;;;;;;5054253;28;20045;-75
2021/07/26 07:57:52;;;;;;;24.33;15.30;;;18.70;76.40;;;;;;5050838;28;20055;-76
2021/07/26 08:00:21;;;;;;;30.60;15.68;;;18.70;76.20;;;;;;5056770;28;20407;-75
2021/07/26 08:02:49;;;;;;;36.35;16.10;;;18.70;76.00;;;;;;5062964;28;20045;-76
2021/07/26 08:05:19;;;;;;;27.30;16.60;;;18.80;75.90;;;;;;5067099;28;20049;-76
2021/07/26 08:07:47;;;;;;;23.58;15.93;;;18.90;75.70;;;;;;5053784;28;20060;-76
2021/07/26 08:10:15;;;;;;;22.75;14.23;;;19.00;75.40;;;;;;5059621;28;20385;-75
2021/07/26 08:12:46;;;;;;;29.92;15.88;;;19.30;74.80;;;;;;5068847;28;20063;-76
2021/07/26 08:15:14;;;;;;;20.08;14.20;;;19.40;73.80;;;;;;5040301;28;20492;-75
2021/07/26 08:17:44;;;;;;;20.67;13.18;;;19.50;73.20;;;;;;5067197;28;20049;-75
2021/07/26 08:20:16;;;;;;;17.42;13.00;;;19.60;72.70;;;;;;5059573;28;20037;-76
2021/07/26 08:22:45;;;;;;;18.52;12.50;;;19.70;72.10;;;;;;5043781;28;20056;-75
2021/07/26 08:25:14;;;;;;;15.95;10.73;;;19.80;71.90;;;;;;5056749;28;20056;-76
2021/07/26 08:27:56;;;;;;;28.23;11.90;;;19.90;71.40;;;;;;5067138;28;20049;-76
2021/07/26 08:30:34;;;;;;;55.85;14.25;;;19.90;70.70;;;;;;5041267;28;20057;-75
2021/07/26 08:33:02;;;;;;;27.63;13.10;;;20.10;70.30;;;;;;5058145;28;20060;-75
2021/07/26 08:35:33;;;;;;;17.90;12.48;;;20.10;69.70;;;;;;5058370;28;20055;-75
2021/07/26 08:38:02;;;;;;;18.15;11.80;;;20.20;69.80;;;;;;5054139;28;20407;-76
2021/07/26 08:40:32;;;;;;;17.83;10.93;;;20.30;69.80;;;;;;5064119;28;20045;-76
2021/07/26 08:43:04;;;;;;;17.05;11.45;;;20.30;69.80;;;;;;5055899;28;20373;-74
2021/07/26 08:45:36;;;;;;;14.95;11.75;;;20.30;69.70;;;;;;5056729;28;20041;-75
2021/07/26 08:48:10;;;;;;;15.52;11.73;;;20.30;69.70;;;;;;5062651;28;20129;-74
2021/07/26 08:50:38;;;;;;;22.10;14.38;;;20.30;69.70;;;;;;5042997;28;20037;-75
2021/07/26 08:53:08;;;;;;;14.93;12.57;;;20.30;69.70;;;;;;5060449;28;20048;-75
2021/07/26 08:55:36;;;;;;;15.65;12.55;;;20.30;69.80;;;;;;5063441;28;20041;-75
2021/07/26 08:58:05;;;;;;;27.77;12.93;;;20.50;69.70;;;;;;5057249;28;20049;-75
2021/07/26 09:00:33;;;;;;;19.23;12.13;;;20.60;69.50;;;;;;5057974;28;20041;-74
2021/07/26 09:03:04;;;;;;;15.35;11.40;;;20.70;69.30;;;;;;5045124;28;20507;-74
2021/07/26 09:05:31;;;;;;;23.08;11.13;;;20.80;69.00;;;;;;5062606;28;20055;-73
2021/07/26 09:08:01;;;;;;;15.10;10.93;;;20.80;68.70;;;;;;5063500;28;20058;-74
2021/07/26 09:10:36;;;;;;;14.73;10.63;;;20.90;68.20;;;;;;5061264;28;20036;-76
2021/07/26 09:13:05;;;;;;;13.80;9.60;;;21.10;67.70;;;;;;5061040;28;20040;-75
2021/07/26 09:15:36;;;;;;;15.00;9.70;;;21.30;67.30;;;;;;5063122;28;20522;-75
2021/07/26 09:18:14;;;;;;;16.35;9.55;;;21.30;66.40;;;;;;5062528;28;20048;-75
2021/07/26 09:20:52;;;;;;;14.35;9.18;;;21.30;65.80;;;;;;5059302;28;20045;-75
2021/07/26 09:23:21;;;;;;;11.80;7.95;;;21.30;65.50;;;;;;5060687;28;20053;-75
2021/07/26 09:25:50;;;;;;;15.32;8.80;;;21.30;65.40;;;;;;5059330;28;20533;-75
2021/07/26 09:28:22;;;;;;;22.27;9.45;;;21.20;65.30;;;;;;5060256;28;20044;-75
2021/07/26 09:30:54;;;;;;;11.85;8.35;;;21.30;65.00;;;;;;5060908;28;20051;-75
2021/07/26 09:33:26;;;;;;;11.38;7.60;;;21.50;64.50;;;;;;5061714;28;20048;-74
2021/07/26 09:36:14;;;;;;;24.40;7.50;;;21.80;63.70;;;;;;5065267;28;20053;-75
2021/07/26 09:38:52;;;;;;;14.70;7.72;;;21.90;62.60;;;;;;5097008;28;20510;-76
2021/07/26 09:41:42;;;;;;;11.35;7.97;;;22.10;61.80;;;;;;5064255;28;20044;-74
2021/07/26 09:44:10;;;;;;;24.63;8.45;;;22.30;60.80;;;;;;5066497;28;20047;-76
2021/07/26 09:46:39;;;;;;;33.38;8.82;;;22.30;60.50;;;;;;5057427;28;20052;-77
2021/07/26 09:49:15;;;;;;;13.57;7.32;;;22.30;60.00;;;;;;5055063;28;20089;-76
2021/07/26 09:52:01;;;;;;;12.00;7.78;;;22.20;59.40;;;;;;5066616;28;20059;-76
2021/07/26 09:54:50;;;;;;;25.70;7.45;;;22.20;59.40;;;;;;5055599;28;20080;-76
2021/07/26 09:57:23;;;;;;;11.82;6.28;;;22.10;59.90;;;;;;5046052;28;20045;-76
2021/07/26 09:59:52;;;;;;;6.65;5.95;;;22.00;58.80;;;;;;5062308;28;20051;-76
2021/07/26 10:02:23;;;;;;;11.85;6.30;;;22.00;57.80;;;;;;5068654;28;20049;-76
2021/07/26 10:04:53;;;;;;;13.35;6.65;;;22.00;57.20;;;;;;5058023;28;20033;-76
2021/07/26 10:07:23;;;;;;;9.48;6.38;;;22.00;57.20;;;;;;5072716;28;20403;-75
2021/07/26 10:09:52;;;;;;;17.80;6.72;;;22.20;57.10;;;;;;5072836;28;20049;-74
2021/07/26 10:12:20;;;;;;;33.70;7.47;;;22.30;57.00;;;;;;5064573;28;20487;-74
2021/07/26 10:14:51;;;;;;;13.68;6.13;;;22.50;56.20;;;;;;5061380;28;20041;-75
2021/07/26 10:17:19;;;;;;;11.05;7.18;;;22.60;56.10;;;;;;5063784;28;20056;-75
2021/07/26 10:19:47;;;;;;;10.88;6.50;;;22.70;56.00;;;;;;5062542;28;20565;-76
2021/07/26 10:22:21;;;;;;;95.20;11.30;;;22.70;55.80;;;;;;5062680;28;20051;-75
2021/07/26 10:25:05;;;;;;;16.42;6.25;;;22.70;56.20;;;;;;5063049;28;20045;-76
2021/07/26 10:27:36;;;;;;;6.75;5.88;;;22.80;55.60;;;;;;5058742;28;20061;-75
2021/07/26 10:30:04;;;;;;;11.05;6.60;;;23.00;55.30;;;;;;5052472;28;20053;-76
2021/07/26 10:32:37;;;;;;;7.50;5.78;;;23.20;54.50;;;;;;5064930;28;20049;-76
2021/07/26 10:35:38;;;;;;;7.10;5.60;;;23.40;53.50;;;;;;5066238;28;20049;-76
2021/07/26 10:38:09;;;;;;;10.63;6.18;;;23.50;53.20;;;;;;5062288;28;20415;-75
2021/07/26 10:40:39;;;;;;;56.78;8.30;;;23.60;52.50;;;;;;5045624;28;20444;-74
2021/07/26 10:43:14;;;;;;;13.77;6.03;;;23.80;52.40;;;;;;5063279;28;20351;-75
2021/07/26 10:45:56;;;;;;;24.95;6.68;;;24.00;52.10;;;;;;5045384;28;20048;-74
2021/07/26 10:48:31;;;;;;;41.72;7.35;;;24.30;51.10;;;;;;5061867;28;20055;-75
2021/07/26 10:51:00;;;;;;;84.13;10.35;;;24.10;51.30;;;;;;5061005;28;20291;-75
2021/07/26 10:53:37;;;;;;;9.52;6.55;;;24.00;51.80;;;;;;5046075;28;20248;-76
2021/07/26 10:56:13;;;;;;;29.15;7.05;;;24.20;50.70;;;;;;5061383;28;20502;-75
2021/07/26 10:58:41;;;;;;;11.77;6.03;;;24.20;51.00;;;;;;5045377;28;20061;-75
2021/07/26 11:01:29;;;;;;;12.02;6.43;;;24.60;50.50;;;;;;5061280;28;20041;-75
2021/07/26 11:03:57;;;;;;;37.10;7.90;;;24.90;49.20;;;;;;5055523;28;20527;-74
2021/07/26 11:06:35;;;;;;;12.30;6.65;;;24.80;49.20;;;;;;5060216;28;20044;-75
2021/07/26 11:09:18;;;;;;;11.93;5.28;;;24.50;50.20;;;;;;5042380;28;20049;-76
2021/07/26 11:11:53;;;;;;;13.15;6.72;;;24.30;50.40;;;;;;5060289;28;20037;-76
2021/07/26 11:14:23;;;;;;;8.85;5.70;;;24.40;50.00;;;;;;5065329;28;20430;-77
2021/07/26 11:16:56;;;;;;;9.25;5.35;;;24.80;49.50;;;;;;5072469;28;20049;-75
2021/07/26 11:19:36;;;;;;;20.05;5.70;;;25.30;48.80;;;;;;5055199;28;20052;-77
2021/07/26 11:22:15;;;;;;;29.95;6.72;;;25.70;47.70;;;;;;5068958;28;20071;-77
2021/07/26 11:24:50;;;;;;;58.58;29.00;;;25.60;47.10;;;;;;5072264;28;20044;-75
2021/07/26 11:27:22;;;;;;;27.45;8.25;;;25.30;47.60;;;;;;5071877;28;20041;-75
2021/07/26 11:29:52;;;;;;;18.85;6.25;;;24.80;48.50;;;;;;5067589;28;20048;-77
2021/07/26 11:32:26;;;;;;;50.85;13.45;;;24.40;49.30;;;;;;5072095;28;20052;-76
2021/07/26 11:35:11;;;;;;;19.77;9.80;;;24.30;50.00;;;;;;5057020;28;20041;-75
2021/07/26 11:37:40;;;;;;;7.28;5.50;;;24.80;49.30;;;;;;5064673;28;20053;-76
2021/07/26 11:40:10;;;;;;;6.75;4.80;;;25.30;48.30;;;;;;5055616;28;20067;-76
2021/07/26 11:42:46;;;;;;;9.13;5.05;;;25.90;47.00;;;;;;5064614;28;20036;-75
2021/07/26 11:45:20;;;;;;;15.75;6.10;;;26.30;45.70;;;;;;5046421;28;20538;-75
2021/07/26 11:47:49;;;;;;;178.52;15.38;;;26.30;45.60;;;;;;5063826;28;20044;-76
2021/07/26 11:50:19;;;;;;;28.90;7.32;;;25.90;46.30;;;;;;5062957;28;20053;-76
2021/07/26 11:52:54;;;;;;;10.48;5.60;;;25.60;47.10;;;;;;5053316;28;20222;-75
2021/07/26 11:55:29;;;;;;;9.60;5.60;;;25.70;47.30;;;;;;5050507;28;20049;-76
2021/07/26 11:58:03;;;;;;;7.85;5.53;;;25.70;46.90;;;;;;5051265;28;20049;-76
2021/07/26 12:00:37;;;;;;;22.17;5.80;;;26.00;46.10;;;;;;5059874;28;20314;-76
2021/07/26 12:03:06;;;;;;;11.40;5.50;;;26.30;46.00;;;;;;5069101;28;20057;-76
2021/07/26 12:05:40;;;;;;;14.32;4.68;;;26.40;45.60;;;;;;5024989;28;20064;-77
2021/07/26 12:08:16;;;;;;;14.52;5.50;;;26.40;45.30;;;;;;5053178;28;20045;-75
2021/07/26 12:10:46;;;;;;;21.25;5.35;;;26.80;44.40;;;;;;5057168;28;20492;-75
2021/07/26 12:13:18;;;;;;;13.10;4.75;;;27.10;43.70;;;;;;5060360;28;20041;-75
2021/07/26 12:15:50;;;;;;;7.75;4.82;;;27.50;42.80;;;;;;5044329;28;20048;-77
2021/07/26 12:18:39;;;;;;;8.65;4.82;;;27.80;41.80;;;;;;5026020;28;20041;-76
2021/07/26 12:21:07;;;;;;;5.22;4.60;;;27.80;41.40;;;;;;5059542;28;20044;-76
2021/07/26 12:23:36;;;;;;;6.45;4.40;;;27.40;41.70;;;;;;5061546;28;20045;-76
2021/07/26 12:26:10;;;;;;;13.25;5.30;;;27.30;42.00;;;;;;5057418;28;20048;-76
2021/07/26 12:29:08;;;;;;;5.60;4.78;;;27.30;41.90;;;;;;5056031;28;20051;-77
2021/07/26 12:31:36;;;;;;;7.50;4.30;;;27.40;41.80;;;;;;5059363;28;20048;-77
2021/07/26 12:34:23;;;;;;;12.48;4.97;;;27.70;41.90;;;;;;5059195;28;20052;-76
2021/07/26 12:36:53;;;;;;;29.13;6.45;;;28.10;40.30;;;;;;5061100;28;20048;-76
2021/07/26 12:39:23;;;;;;;40.25;6.10;;;28.30;39.50;;;;;;5058942;28;20059;-77
2021/07/26 12:41:51;;;;;;;16.73;6.05;;;28.50;39.10;;;;;;5060238;28;20041;-77
2021/07/26 12:44:26;;;;;;;17.42;5.40;;;28.20;39.10;;;;;;5059566;28;20063;-76
2021/07/26 12:46:54;;;;;;;20.58;5.07;;;27.70;39.80;;;;;;5052931;28;20053;-76
2021/07/26 12:49:23;;;;;;;54.10;7.47;;;27.30;40.40;;;;;;5053786;28;20047;-76
2021/07/26 12:51:54;;;;;;;9.85;5.22;;;27.30;40.60;;;;;;5059422;28;20060;-76